Terminal Aerodrome Forecast
Issued by NWS Pocatello, ID

Home | Current Version | Previous Version | Text Only | Print | Product List | Glossary On
Versions: 1 2 3 4 5 6 7 8 9 10 11 12 13 14 15 16
000
FTUS45 KPIH 211720
TAFIDA
TAF
KIDA 211720Z 2118/2218 22015G25KT P6SM SCT025 SCT070 BKN180
     FM212200 22020G30KT P6SM SCT040 BKN100 BKN180
     FM220200 20015KT P6SM -SHRA SCT025 BKN050 OVC070
     FM220630 19010KT P6SM -SHRA BKN025 OVC050
     FM221500 21015G25KT P6SM SCT025 BKN050 BKN110=

USA.gov is the U.S. government's official web portal to all federal, state and local government web resources and services.